sensor_id;sensor_type;location;lat;lon;timestamp;pressure;altitude;pressure_sealevel;temperature;humidity
33795;BME280;51430;52.242;21.118;2022-07-25T00:00:03;100630.38;;;16.53;93.93
33795;BME280;51430;52.242;21.118;2022-07-25T00:02:52;100625.52;;;16.47;93.74
33795;BME280;51430;52.242;21.118;2022-07-25T00:05:20;100622.85;;;16.43;94.04
33795;BME280;51430;52.242;21.118;2022-07-25T00:07:49;100623.98;;;16.41;94.14
33795;BME280;51430;52.242;21.118;2022-07-25T00:10:16;100619.86;;;16.38;94.28
33795;BME280;51430;52.242;21.118;2022-07-25T00:12:44;100615.12;;;16.36;94.35
33795;BME280;51430;52.242;21.118;2022-07-25T00:15:12;100609.27;;;16.32;94.35
33795;BME280;51430;52.242;21.118;2022-07-25T00:17:41;100610.77;;;16.33;94.43
33795;BME280;51430;52.242;21.118;2022-07-25T00:20:09;100611.95;;;16.34;94.53
33795;BME280;51430;52.242;21.118;2022-07-25T00:22:37;100612.21;;;16.33;94.56
33795;BME280;51430;52.242;21.118;2022-07-25T00:25:06;100606.56;;;16.28;94.51
33795;BME280;51430;52.242;21.118;2022-07-25T00:27:34;100608.39;;;16.23;94.61
33795;BME280;51430;52.242;21.118;2022-07-25T00:30:03;100608.10;;;16.19;94.75
33795;BME280;51430;52.242;21.118;2022-07-25T00:32:31;100609.30;;;16.17;95.09
33795;BME280;51430;52.242;21.118;2022-07-25T00:34:59;100606.32;;;16.16;94.97
33795;BME280;51430;52.242;21.118;2022-07-25T00:37:27;100593.94;;;16.09;95.16
33795;BME280;51430;52.242;21.118;2022-07-25T00:39:55;100585.69;;;16.03;95.43
33795;BME280;51430;52.242;21.118;2022-07-25T00:42:24;100584.75;;;15.99;95.71
33795;BME280;51430;52.242;21.118;2022-07-25T00:44:52;100580.51;;;15.97;95.76
33795;BME280;51430;52.242;21.118;2022-07-25T00:47:20;100579.09;;;15.97;96.03
33795;BME280;51430;52.242;21.118;2022-07-25T00:49:48;100572.42;;;15.97;95.88
33795;BME280;51430;52.242;21.118;2022-07-25T00:52:16;100572.80;;;15.97;95.75
33795;BME280;51430;52.242;21.118;2022-07-25T00:54:44;100576.33;;;15.96;95.66
33795;BME280;51430;52.242;21.118;2022-07-25T00:57:13;100578.83;;;15.92;95.75
33795;BME280;51430;52.242;21.118;2022-07-25T00:59:41;100576.82;;;15.86;95.84
33795;BME280;51430;52.242;21.118;2022-07-25T01:02:10;100580.52;;;15.80;95.96
33795;BME280;51430;52.242;21.118;2022-07-25T01:04:39;100586.77;;;15.76;95.99
33795;BME280;51430;52.242;21.118;2022-07-25T01:07:07;100586.57;;;15.72;95.95
33795;BME280;51430;52.242;21.118;2022-07-25T01:09:35;100589.68;;;15.67;96.15
33795;BME280;51430;52.242;21.118;2022-07-25T01:12:04;100589.90;;;15.59;96.43
33795;BME280;51430;52.242;21.118;2022-07-25T01:14:32;100588.13;;;15.51;96.84
33795;BME280;51430;52.242;21.118;2022-07-25T01:17:00;100590.83;;;15.49;97.05
33795;BME280;51430;52.242;21.118;2022-07-25T01:19:28;100585.52;;;15.47;97.16
33795;BME280;51430;52.242;21.118;2022-07-25T01:21:56;100586.45;;;15.43;97.19
33795;BME280;51430;52.242;21.118;2022-07-25T01:24:24;100579.75;;;15.40;97.14
33795;BME280;51430;52.242;21.118;2022-07-25T01:26:52;100579.11;;;15.37;97.37
33795;BME280;51430;52.242;21.118;2022-07-25T01:29:20;100581.05;;;15.35;97.32
33795;BME280;51430;52.242;21.118;2022-07-25T01:31:48;100580.31;;;15.35;97.35
33795;BME280;51430;52.242;21.118;2022-07-25T01:34:16;100580.39;;;15.34;97.04
33795;BME280;51430;52.242;21.118;2022-07-25T01:36:44;100578.75;;;15.31;97.32
33795;BME280;51430;52.242;21.118;2022-07-25T01:39:12;100573.98;;;15.28;97.21
33795;BME280;51430;52.242;21.118;2022-07-25T01:41:41;100571.16;;;15.22;97.34
33795;BME280;51430;52.242;21.118;2022-07-25T01:44:08;100567.60;;;15.21;97.37
33795;BME280;51430;52.242;21.118;2022-07-25T01:46:37;100566.64;;;15.20;97.50
33795;BME280;51430;52.242;21.118;2022-07-25T01:49:05;100564.08;;;15.15;97.56
33795;BME280;51430;52.242;21.118;2022-07-25T01:51:33;100561.69;;;15.11;97.56
33795;BME280;51430;52.242;21.118;2022-07-25T01:54:02;100563.27;;;15.08;97.72
33795;BME280;51430;52.242;21.118;2022-07-25T01:56:36;100562.25;;;15.08;97.83
33795;BME280;51430;52.242;21.118;2022-07-25T01:59:06;100562.23;;;15.07;97.74
33795;BME280;51430;52.242;21.118;2022-07-25T02:01:35;100561.62;;;15.05;97.67
33795;BME280;51430;52.242;21.118;2022-07-25T02:04:04;100569.34;;;15.04;97.87
33795;BME280;51430;52.242;21.118;2022-07-25T02:06:32;100566.40;;;15.01;97.77
33795;BME280;51430;52.242;21.118;2022-07-25T02:09:03;100569.08;;;14.97;97.79
33795;BME280;51430;52.242;21.118;2022-07-25T02:11:31;100570.27;;;14.94;97.85
33795;BME280;51430;52.242;21.118;2022-07-25T02:13:59;100569.10;;;14.91;97.97
33795;BME280;51430;52.242;21.118;2022-07-25T02:16:27;100569.57;;;14.90;98.11
33795;BME280;51430;52.242;21.118;2022-07-25T02:18:56;100569.59;;;14.87;98.31
33795;BME280;51430;52.242;21.118;2022-07-25T02:21:24;100564.10;;;14.84;98.31
33795;BME280;51430;52.242;21.118;2022-07-25T02:23:53;100565.84;;;14.81;98.28
33795;BME280;51430;52.242;21.118;2022-07-25T02:26:21;100563.43;;;14.76;98.39
33795;BME280;51430;52.242;21.118;2022-07-25T02:28:49;100567.98;;;14.73;98.70
33795;BME280;51430;52.242;21.118;2022-07-25T02:31:17;100569.11;;;14.70;98.76
33795;BME280;51430;52.242;21.118;2022-07-25T02:33:45;100565.89;;;14.67;99.36
33795;BME280;51430;52.242;21.118;2022-07-25T02:36:14;100569.73;;;14.63;99.85
33795;BME280;51430;52.242;21.118;2022-07-25T02:38:42;100566.41;;;14.63;100.00
33795;BME280;51430;52.242;21.118;2022-07-25T02:41:10;100567.92;;;14.63;100.00
33795;BME280;51430;52.242;21.118;2022-07-25T02:43:39;100568.31;;;14.63;100.00
33795;BME280;51430;52.242;21.118;2022-07-25T02:46:06;100568.27;;;14.64;100.00
33795;BME280;51430;52.242;21.118;2022-07-25T02:48:35;100568.18;;;14.63;100.00
33795;BME280;51430;52.242;21.118;2022-07-25T02:51:03;100567.27;;;14.63;100.00
33795;BME280;51430;52.242;21.118;2022-07-25T02:53:31;100573.27;;;14.65;100.00
33795;BME280;51430;52.242;21.118;2022-07-25T02:56:19;100564.81;;;14.67;100.00
33795;BME280;51430;52.242;21.118;2022-07-25T02:58:47;100567.52;;;14.66;100.00
33795;BME280;51430;52.242;21.118;2022-07-25T03:01:15;100575.03;;;14.67;100.00
33795;BME280;51430;52.242;21.118;2022-07-25T03:03:43;100576.34;;;14.66;100.00
33795;BME280;51430;52.242;21.118;2022-07-25T03:06:12;100578.88;;;14.65;100.00
33795;BME280;51430;52.242;21.118;2022-07-25T03:08:40;100581.85;;;14.65;100.00
33795;BME280;51430;52.242;21.118;2022-07-25T03:11:08;100583.79;;;14.65;100.00
33795;BME280;51430;52.242;21.118;2022-07-25T03:13:36;100580.80;;;14.65;100.00
33795;BME280;51430;52.242;21.118;2022-07-25T03:16:05;100582.20;;;14.65;100.00
33795;BME280;51430;52.242;21.118;2022-07-25T03:18:33;100581.65;;;14.67;100.00
33795;BME280;51430;52.242;21.118;2022-07-25T03:21:01;100577.73;;;14.68;100.00
33795;BME280;51430;52.242;21.118;2022-07-25T03:23:29;100576.13;;;14.68;100.00
33795;BME280;51430;52.242;21.118;2022-07-25T03:25:57;100574.27;;;14.69;100.00
33795;BME280;51430;52.242;21.118;2022-07-25T03:28:25;100572.07;;;14.72;100.00
33795;BME280;51430;52.242;21.118;2022-07-25T03:30:53;100570.14;;;14.76;100.00
33795;BME280;51430;52.242;21.118;2022-07-25T03:33:21;100573.88;;;14.81;100.00
33795;BME280;51430;52.242;21.118;2022-07-25T03:35:50;100571.01;;;14.88;100.00
33795;BME280;51430;52.242;21.118;2022-07-25T03:38:18;100572.41;;;14.91;100.00
33795;BME280;51430;52.242;21.118;2022-07-25T03:40:46;100566.14;;;14.93;100.00
33795;BME280;51430;52.242;21.118;2022-07-25T03:43:14;100567.30;;;14.97;100.00
33795;BME280;51430;52.242;21.118;2022-07-25T03:45:42;100575.02;;;15.03;100.00
33795;BME280;51430;52.242;21.118;2022-07-25T03:48:10;100576.58;;;15.13;100.00
33795;BME280;51430;52.242;21.118;2022-07-25T03:50:38;100583.60;;;15.22;100.00
33795;BME280;51430;52.242;21.118;2022-07-25T03:53:06;100577.34;;;15.27;100.00
33795;BME280;51430;52.242;21.118;2022-07-25T03:55:37;100578.50;;;15.32;100.00
33795;BME280;51430;52.242;21.118;2022-07-25T03:58:06;100580.91;;;15.40;100.00
33795;BME280;51430;52.242;21.118;2022-07-25T04:00:34;100577.23;;;15.47;100.00
33795;BME280;51430;52.242;21.118;2022-07-25T04:03:03;100572.25;;;15.56;100.00
33795;BME280;51430;52.242;21.118;2022-07-25T04:05:31;100573.14;;;15.67;100.00
33795;BME280;51430;52.242;21.118;2022-07-25T04:07:59;100572.58;;;15.79;100.00
33795;BME280;51430;52.242;21.118;2022-07-25T04:10:27;100573.61;;;15.90;100.00
33795;BME280;51430;52.242;21.118;2022-07-25T04:12:55;100576.44;;;16.05;100.00
33795;BME280;51430;52.242;21.118;2022-07-25T04:15:23;100575.02;;;16.19;100.00
33795;BME280;51430;52.242;21.118;2022-07-25T04:17:52;100577.70;;;16.35;100.00
33795;BME280;51430;52.242;21.118;2022-07-25T04:20:20;100574.87;;;16.50;100.00
33795;BME280;51430;52.242;21.118;2022-07-25T04:22:48;100573.77;;;16.63;99.84
33795;BME280;51430;52.242;21.118;2022-07-25T04:25:15;100571.87;;;16.71;99.23
33795;BME280;51430;52.242;21.118;2022-07-25T04:27:45;100568.05;;;16.81;98.57
33795;BME280;51430;52.242;21.118;2022-07-25T04:30:13;100567.27;;;16.89;98.30
33795;BME280;51430;52.242;21.118;2022-07-25T04:32:51;100570.11;;;17.01;97.54
33795;BME280;51430;52.242;21.118;2022-07-25T04:35:19;100569.50;;;17.09;96.73
33795;BME280;51430;52.242;21.118;2022-07-25T04:37:48;100566.78;;;17.15;95.91
33795;BME280;51430;52.242;21.118;2022-07-25T04:40:16;100565.52;;;17.29;95.55
33795;BME280;51430;52.242;21.118;2022-07-25T04:42:44;100567.34;;;17.39;94.30
33795;BME280;51430;52.242;21.118;2022-07-25T04:45:12;100569.96;;;17.43;92.79
33795;BME280;51430;52.242;21.118;2022-07-25T04:47:44;100570.89;;;17.50;92.72
33795;BME280;51430;52.242;21.118;2022-07-25T04:50:12;100572.79;;;17.52;91.20
33795;BME280;51430;52.242;21.118;2022-07-25T04:52:41;100572.97;;;17.64;90.66
33795;BME280;51430;52.242;21.118;2022-07-25T04:55:10;100571.36;;;17.74;88.48
33795;BME280;51430;52.242;21.118;2022-07-25T04:57:40;100573.76;;;17.88;87.54
33795;BME280;51430;52.242;21.118;2022-07-25T05:00:09;100572.87;;;18.02;86.97
33795;BME280;51430;52.242;21.118;2022-07-25T05:02:38;100573.96;;;18.08;85.78
33795;BME280;51430;52.242;21.118;2022-07-25T05:05:07;100575.10;;;18.18;85.70
33795;BME280;51430;52.242;21.118;2022-07-25T05:07:49;100572.23;;;18.28;84.85
33795;BME280;51430;52.242;21.118;2022-07-25T05:10:19;100573.54;;;18.32;83.90
33795;BME280;51430;52.242;21.118;2022-07-25T05:12:47;100573.88;;;18.39;83.94
33795;BME280;51430;52.242;21.118;2022-07-25T05:15:15;100574.81;;;18.44;83.76
33795;BME280;51430;52.242;21.118;2022-07-25T05:17:43;100569.98;;;18.53;83.14
33795;BME280;51430;52.242;21.118;2022-07-25T05:20:12;100568.23;;;18.54;82.57
33795;BME280;51430;52.242;21.118;2022-07-25T05:22:41;100569.20;;;18.57;82.75
33795;BME280;51430;52.242;21.118;2022-07-25T05:25:09;100566.77;;;18.66;82.80
33795;BME280;51430;52.242;21.118;2022-07-25T05:27:39;100566.70;;;18.80;83.06
33795;BME280;51430;52.242;21.118;2022-07-25T05:30:09;100563.40;;;18.96;81.72
33795;BME280;51430;52.242;21.118;2022-07-25T05:32:38;100560.58;;;19.04;80.79
33795;BME280;51430;52.242;21.118;2022-07-25T05:35:07;100562.88;;;19.17;80.30
33795;BME280;51430;52.242;21.118;2022-07-25T05:37:37;100558.54;;;19.26;79.38
33795;BME280;51430;52.242;21.118;2022-07-25T05:40:06;100556.43;;;19.27;79.30
33795;BME280;51430;52.242;21.118;2022-07-25T05:42:35;100557.66;;;19.34;77.54
33795;BME280;51430;52.242;21.118;2022-07-25T05:45:03;100557.85;;;19.53;77.89
33795;BME280;51430;52.242;21.118;2022-07-25T05:47:32;100558.10;;;19.64;76.12
33795;BME280;51430;52.242;21.118;2022-07-25T05:50:00;100557.60;;;19.77;75.50
33795;BME280;51430;52.242;21.118;2022-07-25T05:52:29;100556.38;;;20.27;73.56
33795;BME280;51430;52.242;21.118;2022-07-25T05:54:57;100551.89;;;20.78;70.82
33795;BME280;51430;52.242;21.118;2022-07-25T05:57:25;100553.56;;;21.34;68.47
33795;BME280;51430;52.242;21.118;2022-07-25T05:59:53;100553.60;;;21.76;66.64
33795;BME280;51430;52.242;21.118;2022-07-25T06:02:21;100562.60;;;22.06;65.20
33795;BME280;51430;52.242;21.118;2022-07-25T06:04:49;100562.45;;;22.11;64.02
33795;BME280;51430;52.242;21.118;2022-07-25T06:07:17;100562.09;;;22.43;63.94
33795;BME280;51430;52.242;21.118;2022-07-25T06:09:45;100561.55;;;22.68;62.24
33795;BME280;51430;52.242;21.118;2022-07-25T06:12:14;100561.09;;;22.73;61.82
33795;BME280;51430;52.242;21.118;2022-07-25T06:14:42;100561.77;;;23.00;61.72
33795;BME280;51430;52.242;21.118;2022-07-25T06:17:10;100558.96;;;23.24;60.78
33795;BME280;51430;52.242;21.118;2022-07-25T06:19:38;100553.67;;;23.57;60.06
33795;BME280;51430;52.242;21.118;2022-07-25T06:22:06;100555.52;;;23.51;59.19
33795;BME280;51430;52.242;21.118;2022-07-25T06:24:36;100559.39;;;23.69;59.04
33795;BME280;51430;52.242;21.118;2022-07-25T06:27:06;100557.49;;;23.81;58.64
33795;BME280;51430;52.242;21.118;2022-07-25T06:29:36;100556.20;;;24.06;58.67
33795;BME280;51430;52.242;21.118;2022-07-25T06:32:04;100554.50;;;24.09;58.31
33795;BME280;51430;52.242;21.118;2022-07-25T06:34:33;100551.20;;;24.09;58.32
33795;BME280;51430;52.242;21.118;2022-07-25T06:37:01;100548.31;;;24.00;58.38
33795;BME280;51430;52.242;21.118;2022-07-25T06:39:29;100544.23;;;24.37;58.10
33795;BME280;51430;52.242;21.118;2022-07-25T06:41:57;100543.05;;;24.43;57.93
33795;BME280;51430;52.242;21.118;2022-07-25T06:44:26;100543.61;;;24.38;57.88
33795;BME280;51430;52.242;21.118;2022-07-25T06:46:54;100542.27;;;24.31;57.88
33795;BME280;51430;52.242;21.118;2022-07-25T06:49:22;100534.87;;;24.66;57.10
33795;BME280;51430;52.242;21.118;2022-07-25T06:51:50;100533.79;;;25.17;56.20
33795;BME280;51430;52.242;21.118;2022-07-25T06:54:18;100526.02;;;25.32;55.52
33795;BME280;51430;52.242;21.118;2022-07-25T06:56:46;100524.77;;;25.46;55.64
33795;BME280;51430;52.242;21.118;2022-07-25T06:59:14;100523.61;;;25.73;55.11
33795;BME280;51430;52.242;21.118;2022-07-25T07:01:42;100520.19;;;25.92;54.71
33795;BME280;51430;52.242;21.118;2022-07-25T07:04:17;100521.80;;;26.40;53.87
33795;BME280;51430;52.242;21.118;2022-07-25T07:06:46;100526.64;;;26.57;52.55
33795;BME280;51430;52.242;21.118;2022-07-25T07:09:14;100522.08;;;25.68;53.62
33795;BME280;51430;52.242;21.118;2022-07-25T07:11:42;100517.92;;;25.63;54.23
33795;BME280;51430;52.242;21.118;2022-07-25T07:14:10;100519.44;;;25.73;53.49
33795;BME280;51430;52.242;21.118;2022-07-25T07:16:38;100520.05;;;26.10;52.85
33795;BME280;51430;52.242;21.118;2022-07-25T07:19:08;100527.50;;;26.28;51.93
33795;BME280;51430;52.242;21.118;2022-07-25T07:21:41;100525.25;;;26.25;51.21
33795;BME280;51430;52.242;21.118;2022-07-25T07:24:10;100519.94;;;26.48;50.09
33795;BME280;51430;52.242;21.118;2022-07-25T07:26:53;100526.21;;;26.67;49.79
33795;BME280;51430;52.242;21.118;2022-07-25T07:29:21;100528.99;;;27.01;48.93
33795;BME280;51430;52.242;21.118;2022-07-25T07:31:50;100528.67;;;27.15;48.53
33795;BME280;51430;52.242;21.118;2022-07-25T07:34:18;100534.80;;;27.38;47.86
33795;BME280;51430;52.242;21.118;2022-07-25T07:36:46;100527.40;;;27.57;47.68
33795;BME280;51430;52.242;21.118;2022-07-25T07:39:14;100525.55;;;27.93;48.07
33795;BME280;51430;52.242;21.118;2022-07-25T07:41:43;100520.08;;;28.43;46.03
33795;BME280;51430;52.242;21.118;2022-07-25T07:44:11;100513.52;;;28.98;44.86
33795;BME280;51430;52.242;21.118;2022-07-25T07:46:39;100513.58;;;28.13;45.41
33795;BME280;51430;52.242;21.118;2022-07-25T07:49:08;100508.82;;;28.20;45.94
33795;BME280;51430;52.242;21.118;2022-07-25T07:51:39;100511.96;;;28.43;44.64
33795;BME280;51430;52.242;21.118;2022-07-25T07:54:07;100509.35;;;28.39;44.49
33795;BME280;51430;52.242;21.118;2022-07-25T07:56:54;100510.09;;;28.57;44.55
33795;BME280;51430;52.242;21.118;2022-07-25T07:59:22;100507.75;;;29.00;43.26
33795;BME280;51430;52.242;21.118;2022-07-25T08:01:50;100509.17;;;29.76;42.97
33795;BME280;51430;52.242;21.118;2022-07-25T08:04:18;100512.73;;;28.94;41.91
33795;BME280;51430;52.242;21.118;2022-07-25T08:06:46;100512.05;;;28.81;42.31
33795;BME280;51430;52.242;21.118;2022-07-25T08:09:15;100508.86;;;29.30;41.45
33795;BME280;51430;52.242;21.118;2022-07-25T08:11:43;100512.32;;;29.42;40.45
33795;BME280;51430;52.242;21.118;2022-07-25T08:14:11;100508.35;;;29.74;40.45
33795;BME280;51430;52.242;21.118;2022-07-25T08:16:39;100504.63;;;29.40;39.11
33795;BME280;51430;52.242;21.118;2022-07-25T08:19:08;100503.59;;;28.40;40.25
33795;BME280;51430;52.242;21.118;2022-07-25T08:21:36;100491.36;;;27.98;40.25
33795;BME280;51430;52.242;21.118;2022-07-25T08:24:04;100488.96;;;28.42;40.61
33795;BME280;51430;52.242;21.118;2022-07-25T08:26:34;100488.80;;;28.06;42.48
33795;BME280;51430;52.242;21.118;2022-07-25T08:29:04;100489.58;;;28.45;42.64
33795;BME280;51430;52.242;21.118;2022-07-25T08:31:46;100488.62;;;28.78;41.12
33795;BME280;51430;52.242;21.118;2022-07-25T08:34:15;100489.08;;;28.71;39.88
33795;BME280;51430;52.242;21.118;2022-07-25T08:36:44;100485.48;;;28.86;40.66
33795;BME280;51430;52.242;21.118;2022-07-25T08:39:12;100487.77;;;29.25;39.90
33795;BME280;51430;52.242;21.118;2022-07-25T08:41:41;100489.58;;;29.47;38.42
33795;BME280;51430;52.242;21.118;2022-07-25T08:44:10;100487.77;;;30.03;37.68
33795;BME280;51430;52.242;21.118;2022-07-25T08:46:41;100487.38;;;30.64;36.47
33795;BME280;51430;52.242;21.118;2022-07-25T08:49:10;100486.34;;;30.58;35.94
33795;BME280;51430;52.242;21.118;2022-07-25T08:51:38;100481.30;;;30.84;35.05
33795;BME280;51430;52.242;21.118;2022-07-25T08:54:07;100481.24;;;31.34;35.36
33795;BME280;51430;52.242;21.118;2022-07-25T08:56:38;100484.61;;;32.19;35.35
33795;BME280;51430;52.242;21.118;2022-07-25T08:59:06;100486.98;;;32.55;34.94
33795;BME280;51430;52.242;21.118;2022-07-25T09:01:34;100484.08;;;32.88;34.17
33795;BME280;51430;52.242;21.118;2022-07-25T09:04:02;100481.91;;;32.94;33.94
33795;BME280;51430;52.242;21.118;2022-07-25T09:06:32;100483.09;;;32.41;33.70
33795;BME280;51430;52.242;21.118;2022-07-25T09:09:00;100479.95;;;32.36;34.65
33795;BME280;51430;52.242;21.118;2022-07-25T09:11:35;100480.08;;;31.67;34.08
33795;BME280;51430;52.242;21.118;2022-07-25T09:14:08;100478.61;;;32.03;33.38
33795;BME280;51430;52.242;21.118;2022-07-25T09:16:43;100480.76;;;32.22;32.69
33795;BME280;51430;52.242;21.118;2022-07-25T09:19:20;100481.93;;;32.44;33.47
33795;BME280;51430;52.242;21.118;2022-07-25T09:24:26;100479.15;;;31.55;33.65
33795;BME280;51430;52.242;21.118;2022-07-25T09:26:57;100475.14;;;32.11;32.98
33795;BME280;51430;52.242;21.118;2022-07-25T09:29:31;100477.63;;;33.06;33.25
33795;BME280;51430;52.242;21.118;2022-07-25T09:32:01;100473.88;;;33.56;32.41
33795;BME280;51430;52.242;21.118;2022-07-25T09:34:41;100474.14;;;33.81;31.70
33795;BME280;51430;52.242;21.118;2022-07-25T09:37:13;100468.34;;;34.22;31.93
33795;BME280;51430;52.242;21.118;2022-07-25T09:39:47;100467.80;;;34.68;31.28
33795;BME280;51430;52.242;21.118;2022-07-25T09:45:08;100463.78;;;34.77;30.24
33795;BME280;51430;52.242;21.118;2022-07-25T09:48:00;100458.77;;;34.56;30.90
33795;BME280;51430;52.242;21.118;2022-07-25T09:50:31;100466.65;;;35.72;30.89
33795;BME280;51430;52.242;21.118;2022-07-25T09:53:01;100465.59;;;36.27;29.46
33795;BME280;51430;52.242;21.118;2022-07-25T09:55:29;100461.20;;;35.38;30.56
33795;BME280;51430;52.242;21.118;2022-07-25T09:57:58;100455.04;;;34.60;31.51
33795;BME280;51430;52.242;21.118;2022-07-25T10:00:27;100452.30;;;34.15;31.86
33795;BME280;51430;52.242;21.118;2022-07-25T10:09:13;100452.70;;;35.20;31.04
33795;BME280;51430;52.242;21.118;2022-07-25T10:12:02;100454.67;;;36.16;30.02
33795;BME280;51430;52.242;21.118;2022-07-25T10:14:33;100454.33;;;36.59;28.53
33795;BME280;51430;52.242;21.118;2022-07-25T10:17:02;100451.98;;;36.23;28.32
33795;BME280;51430;52.242;21.118;2022-07-25T10:19:46;100453.09;;;36.32;27.75
33795;BME280;51430;52.242;21.118;2022-07-25T10:22:21;100452.55;;;35.83;29.11
33795;BME280;51430;52.242;21.118;2022-07-25T10:25:16;100449.47;;;35.53;29.25
33795;BME280;51430;52.242;21.118;2022-07-25T10:27:48;100447.23;;;36.00;29.43
33795;BME280;51430;52.242;21.118;2022-07-25T10:30:23;100448.47;;;35.46;29.01
33795;BME280;51430;52.242;21.118;2022-07-25T10:32:56;100438.77;;;35.55;29.04
33795;BME280;51430;52.242;21.118;2022-07-25T10:35:27;100436.97;;;37.30;28.41
33795;BME280;51430;52.242;21.118;2022-07-25T10:37:57;100437.89;;;38.52;27.19
33795;BME280;51430;52.242;21.118;2022-07-25T10:40:34;100439.17;;;39.29;26.53
33795;BME280;51430;52.242;21.118;2022-07-25T10:43:10;100437.04;;;38.64;26.31
33795;BME280;51430;52.242;21.118;2022-07-25T10:45:47;100424.46;;;36.59;28.21
33795;BME280;51430;52.242;21.118;2022-07-25T10:48:27;100414.70;;;37.09;28.78
33795;BME280;51430;52.242;21.118;2022-07-25T10:51:10;100420.43;;;37.06;27.68
33795;BME280;51430;52.242;21.118;2022-07-25T10:56:18;100411.11;;;36.47;28.08
33795;BME280;51430;52.242;21.118;2022-07-25T10:58:51;100405.90;;;37.63;27.54
33795;BME280;51430;52.242;21.118;2022-07-25T11:01:32;100405.11;;;38.04;26.33
33795;BME280;51430;52.242;21.118;2022-07-25T11:04:03;100399.13;;;38.13;27.09
33795;BME280;51430;52.242;21.118;2022-07-25T11:09:03;100397.03;;;39.07;26.27
33795;BME280;51430;52.242;21.118;2022-07-25T11:11:33;100399.01;;;39.46;25.33
33795;BME280;51430;52.242;21.118;2022-07-25T11:14:03;100396.43;;;38.48;26.03
33795;BME280;51430;52.242;21.118;2022-07-25T11:16:31;100391.38;;;38.18;26.48
33795;BME280;51430;52.242;21.118;2022-07-25T11:19:00;100386.98;;;37.37;26.81
33795;BME280;51430;52.242;21.118;2022-07-25T11:21:28;100389.19;;;37.35;26.67
33795;BME280;51430;52.242;21.118;2022-07-25T11:23:56;100386.50;;;36.65;27.25
33795;BME280;51430;52.242;21.118;2022-07-25T11:26:24;100386.30;;;35.95;28.02
33795;BME280;51430;52.242;21.118;2022-07-25T11:28:52;100381.44;;;37.51;27.48
33795;BME280;51430;52.242;21.118;2022-07-25T11:31:21;100387.30;;;38.27;26.34
33795;BME280;51430;52.242;21.118;2022-07-25T11:33:49;100380.95;;;38.53;26.16
33795;BME280;51430;52.242;21.118;2022-07-25T11:36:18;100383.51;;;38.89;26.18
33795;BME280;51430;52.242;21.118;2022-07-25T11:38:47;100382.48;;;39.73;25.34
33795;BME280;51430;52.242;21.118;2022-07-25T11:41:27;100380.03;;;38.46;26.15
33795;BME280;51430;52.242;21.118;2022-07-25T11:43:55;100370.38;;;36.37;28.32
33795;BME280;51430;52.242;21.118;2022-07-25T11:46:24;100367.65;;;35.77;29.11
33795;BME280;51430;52.242;21.118;2022-07-25T11:49:02;100360.45;;;36.81;28.37
33795;BME280;51430;52.242;21.118;2022-07-25T11:51:37;100359.90;;;37.18;28.04
33795;BME280;51430;52.242;21.118;2022-07-25T11:54:09;100357.34;;;36.58;28.55
33795;BME280;51430;52.242;21.118;2022-07-25T11:56:40;100350.54;;;36.99;28.20
33795;BME280;51430;52.242;21.118;2022-07-25T11:59:10;100351.48;;;37.29;28.35
33795;BME280;51430;52.242;21.118;2022-07-25T12:01:41;100345.89;;;36.82;27.99
33795;BME280;51430;52.242;21.118;2022-07-25T12:04:16;100342.05;;;37.54;27.65
33795;BME280;51430;52.242;21.118;2022-07-25T12:06:48;100338.19;;;37.01;27.98
33795;BME280;51430;52.242;21.118;2022-07-25T12:09:20;100340.63;;;38.28;27.53
33795;BME280;51430;52.242;21.118;2022-07-25T12:11:48;100345.42;;;38.96;26.40
33795;BME280;51430;52.242;21.118;2022-07-25T12:14:16;100345.27;;;39.01;25.87
33795;BME280;51430;52.242;21.118;2022-07-25T12:16:45;100342.91;;;38.98;26.38
33795;BME280;51430;52.242;21.118;2022-07-25T12:19:18;100345.47;;;38.77;26.22
33795;BME280;51430;52.242;21.118;2022-07-25T12:21:47;100339.67;;;39.26;25.98
33795;BME280;51430;52.242;21.118;2022-07-25T12:24:15;100340.89;;;40.17;25.07
33795;BME280;51430;52.242;21.118;2022-07-25T12:26:43;100334.27;;;40.70;24.38
33795;BME280;51430;52.242;21.118;2022-07-25T12:29:11;100331.96;;;40.81;24.64
33795;BME280;51430;52.242;21.118;2022-07-25T12:31:40;100327.50;;;41.36;24.40
33795;BME280;51430;52.242;21.118;2022-07-25T12:34:07;100328.86;;;41.29;23.64
33795;BME280;51430;52.242;21.118;2022-07-25T12:36:35;100324.42;;;40.34;24.38
33795;BME280;51430;52.242;21.118;2022-07-25T12:39:11;100320.15;;;40.98;24.99
33795;BME280;51430;52.242;21.118;2022-07-25T12:41:39;100315.98;;;41.43;24.02
33795;BME280;51430;52.242;21.118;2022-07-25T12:44:09;100318.02;;;41.89;24.05
33795;BME280;51430;52.242;21.118;2022-07-25T12:46:38;100316.64;;;42.54;23.45
33795;BME280;51430;52.242;21.118;2022-07-25T12:49:16;100320.10;;;42.73;23.00
33795;BME280;51430;52.242;21.118;2022-07-25T12:51:44;100312.59;;;41.61;23.13
33795;BME280;51430;52.242;21.118;2022-07-25T12:54:12;100302.42;;;39.51;24.84
33795;BME280;51430;52.242;21.118;2022-07-25T12:56:49;100294.92;;;37.98;26.85
33795;BME280;51430;52.242;21.118;2022-07-25T12:59:18;100291.66;;;38.47;26.80
33795;BME280;51430;52.242;21.118;2022-07-25T13:01:46;100294.84;;;39.69;25.78
33795;BME280;51430;52.242;21.118;2022-07-25T13:04:15;100292.23;;;39.32;25.65
33795;BME280;51430;52.242;21.118;2022-07-25T13:06:43;100281.45;;;37.41;27.24